Time;durP1;ratioP1;P1;durP2;ratioP2;P2;SDS_P1;SDS_P2;PMS_P1;PMS_P2;Temp;Humidity;BMP_temperature;BMP_pressure;BME280_temperature;BME280_humidity;BME280_pressure;Samples;Min_cycle;Max_cycle;Signal;HPM_P1;HPM_P2
2022/05/22 00:00:01;;;;;;;5.33;3.77;;;;;;;11.27;78.79;100629.47;5121894;28;20488;-64
2022/05/22 00:02:27;;;;;;;6.50;3.80;;;;;;;11.23;79.50;100634.25;5121099;28;20506;-64
2022/05/22 00:04:54;;;;;;;9.70;3.90;;;;;;;11.20;79.66;100622.97;5111996;28;20442;-64
2022/05/22 00:07:21;;;;;;;8.30;3.80;;;;;;;11.18;79.77;100633.81;5121360;28;20894;-65
2022/05/22 00:09:48;;;;;;;9.67;4.53;;;;;;;11.17;79.78;100624.09;5121663;28;20461;-65
2022/05/22 00:12:15;;;;;;;6.53;4.43;;;;;;;11.16;79.79;100617.03;5120673;28;20897;-65
2022/05/22 00:14:42;;;;;;;7.77;4.43;;;;;;;11.18;79.31;100623.13;5111560;28;20477;-64
2022/05/22 00:17:09;;;;;;;7.30;4.07;;;;;;;11.12;79.37;100618.28;5120801;28;20553;-64
2022/05/22 00:19:37;;;;;;;4.83;4.13;;;;;;;11.07;79.85;100616.00;5121845;28;20446;-64
2022/05/22 00:22:04;;;;;;;6.33;3.90;;;;;;;11.02;79.94;100614.72;5121365;28;20477;-64
2022/05/22 00:24:32;;;;;;;7.27;4.20;;;;;;;11.01;80.41;100619.25;5108513;28;20467;-63
2022/05/22 00:27:02;;;;;;;10.33;4.90;;;;;;;11.01;81.03;100623.75;5120759;28;20474;-63
2022/05/22 00:29:29;;;;;;;16.97;5.73;;;;;;;11.01;80.78;100623.75;5121031;28;20445;-63
2022/05/22 00:31:55;;;;;;;7.80;4.83;;;;;;;10.92;80.94;100615.53;5121112;28;20931;-63
2022/05/22 00:34:22;;;;;;;9.40;5.20;;;;;;;10.86;81.32;100616.06;5109495;28;20515;-63
2022/05/22 00:36:49;;;;;;;9.30;5.03;;;;;;;10.84;81.52;100607.31;5118133;28;20501;-63
2022/05/22 00:39:16;;;;;;;7.03;5.00;;;;;;;10.86;81.86;100612.53;5121232;28;20474;-61
2022/05/22 00:41:48;;;;;;;6.50;4.40;;;;;;;10.88;82.03;100611.44;5120599;28;21053;-63
2022/05/22 00:44:16;;;;;;;7.53;5.27;;;;;;;10.86;81.97;100610.72;5110483;28;20471;-63
2022/05/22 00:46:42;;;;;;;7.00;5.23;;;;;;;10.87;81.99;100601.72;5119864;28;20509;-63
2022/05/22 00:49:12;;;;;;;11.47;5.20;;;;;;;10.87;82.42;100598.22;5120770;28;20485;-63
2022/05/22 00:51:41;;;;;;;9.70;5.10;;;;;;;10.91;82.13;100602.28;5120873;28;20549;-63
2022/05/22 00:54:11;;;;;;;10.47;5.00;;;;;;;10.89;82.11;100607.78;5121434;28;20506;-63
2022/05/22 00:56:40;;;;;;;7.90;4.63;;;;;;;10.85;82.01;100605.50;5120210;28;20549;-64
2022/05/22 00:59:10;;;;;;;9.50;5.00;;;;;;;10.82;82.30;100597.75;5120825;28;20470;-64
2022/05/22 01:01:39;;;;;;;7.30;4.80;;;;;;;10.82;82.12;100603.94;5120231;28;20506;-63
2022/05/22 01:04:09;;;;;;;8.37;5.10;;;;;;;10.81;81.83;100601.41;5104698;28;20498;-63
2022/05/22 01:06:36;;;;;;;6.23;5.00;;;;;;;10.77;82.49;100606.16;5120768;28;20498;-63
2022/05/22 01:09:03;;;;;;;15.50;5.57;;;;;;;10.76;82.49;100601.78;5120769;28;20530;-63
2022/05/22 01:11:31;;;;;;;6.07;4.50;;;;;;;10.72;82.45;100611.06;5119962;28;20505;-64
2022/05/22 01:14:03;;;;;;;6.10;4.40;;;;;;;10.71;82.72;100606.69;5120419;28;20470;-64
2022/05/22 01:16:30;;;;;;;6.07;4.77;;;;;;;10.64;82.46;100613.56;5120492;28;20484;-64
2022/05/22 01:18:58;;;;;;;7.67;4.90;;;;;;;10.60;82.30;100617.47;5121124;28;20498;-64
2022/05/22 01:21:28;;;;;;;8.20;4.03;;;;;;;10.56;82.34;100608.88;5120769;28;20537;-63
2022/05/22 01:23:56;;;;;;;6.60;4.10;;;;;;;10.52;82.55;100610.13;5120727;28;20525;-64
2022/05/22 01:26:25;;;;;;;7.43;4.13;;;;;;;10.44;82.70;100604.59;5117628;28;20477;-64
2022/05/22 01:28:52;;;;;;;9.77;4.90;;;;;;;10.42;82.69;100598.53;5120857;28;20489;-63
2022/05/22 01:31:19;;;;;;;8.30;5.10;;;;;;;10.45;82.61;100599.09;5120375;28;20478;-63
2022/05/22 01:33:46;;;;;;;6.50;4.57;;;;;;;10.45;82.76;100598.25;5106792;28;20482;-63
2022/05/22 01:36:12;;;;;;;10.63;5.07;;;;;;;10.44;82.89;100593.88;5120592;28;20481;-63
2022/05/22 01:38:39;;;;;;;7.80;3.90;;;;;;;10.42;83.08;100596.69;5120958;28;20454;-63
2022/05/22 01:41:07;;;;;;;6.53;4.40;;;;;;;10.39;82.85;100593.44;5116009;28;20486;-63
2022/05/22 01:43:34;;;;;;;5.90;4.20;;;;;;;10.37;83.08;100593.56;5102696;28;20438;-63
2022/05/22 01:46:02;;;;;;;7.93;4.23;;;;;;;10.39;83.13;100594.28;5101838;28;20474;-63
2022/05/22 01:48:29;;;;;;;5.97;4.30;;;;;;;10.38;83.33;100584.59;5104797;28;20538;-63
2022/05/22 01:50:56;;;;;;;8.80;4.60;;;;;;;10.38;83.33;100586.38;5103819;28;20506;-64
2022/05/22 01:53:23;;;;;;;6.73;4.07;;;;;;;10.32;83.20;100590.44;5094892;28;20503;-63
2022/05/22 01:55:50;;;;;;;7.77;4.67;;;;;;;10.27;83.22;100587.28;5102100;28;20537;-63
2022/05/22 01:58:18;;;;;;;7.57;4.43;;;;;;;10.21;83.52;100583.31;5104197;28;20439;-63
2022/05/22 02:00:45;;;;;;;9.10;4.87;;;;;;;10.18;83.15;100591.56;5103118;28;20490;-63
2022/05/22 02:03:11;;;;;;;5.60;5.10;;;;;;;10.12;83.44;100579.59;5102940;28;20474;-63
2022/05/22 02:05:38;;;;;;;7.20;4.23;;;;;;;10.10;83.59;100576.19;5102318;28;20553;-63
2022/05/22 02:08:19;;;;;;;8.60;4.60;;;;;;;10.08;83.32;100572.78;5103516;28;20538;-64
2022/05/22 02:10:46;;;;;;;8.47;5.17;;;;;;;9.98;83.57;100580.75;5101863;28;20467;-64
2022/05/22 02:13:16;;;;;;;6.53;4.67;;;;;;;9.95;83.54;100586.34;5096200;28;20482;-64
2022/05/22 02:15:44;;;;;;;9.33;5.13;;;;;;;9.95;83.50;100583.66;5102067;28;20479;-63
2022/05/22 02:18:11;;;;;;;8.00;4.67;;;;;;;9.90;83.31;100583.22;5103246;28;20459;-64
2022/05/22 02:20:37;;;;;;;9.30;4.63;;;;;;;9.84;83.17;100582.88;5102040;28;20487;-63
2022/05/22 02:23:04;;;;;;;8.03;4.90;;;;;;;9.76;83.14;100591.53;5102518;28;20475;-64
2022/05/22 02:25:33;;;;;;;6.67;5.00;;;;;;;9.71;83.16;100580.38;5102545;28;20491;-64
2022/05/22 02:28:00;;;;;;;8.63;4.77;;;;;;;9.68;83.17;100580.63;5102796;28;21050;-64
2022/05/22 02:30:28;;;;;;;6.70;5.40;;;;;;;9.67;83.60;100584.25;5101779;28;20473;-64
2022/05/22 02:32:56;;;;;;;9.57;5.67;;;;;;;9.60;83.81;100589.28;5103485;28;20514;-64
2022/05/22 02:35:23;;;;;;;8.37;5.83;;;;;;;9.57;84.17;100589.53;5102059;28;20926;-63
2022/05/22 02:37:51;;;;;;;7.43;5.60;;;;;;;9.59;83.82;100595.56;5103497;28;20474;-63
2022/05/22 02:40:20;;;;;;;9.97;6.47;;;;;;;9.58;84.03;100584.06;5100857;28;20483;-65
2022/05/22 02:42:48;;;;;;;6.80;5.30;;;;;;;9.53;83.81;100588.94;5118904;28;20510;-65
2022/05/22 02:45:18;;;;;;;7.97;5.10;;;;;;;9.51;83.98;100587.34;5122424;28;20439;-64
2022/05/22 02:47:44;;;;;;;7.83;5.57;;;;;;;9.51;84.14;100587.34;5123508;28;20465;-65
2022/05/22 02:50:15;;;;;;;7.93;5.47;;;;;;;9.47;84.19;100591.25;5115455;28;20451;-65
2022/05/22 02:52:41;;;;;;;9.97;5.73;;;;;;;9.45;84.56;100588.69;5119905;28;20479;-65
2022/05/22 02:55:09;;;;;;;6.30;5.60;;;;;;;9.46;84.21;100578.84;5122026;28;20454;-64
2022/05/22 02:57:38;;;;;;;6.90;4.83;;;;;;;9.43;84.53;100572.81;5122450;28;20458;-65
2022/05/22 03:00:10;;;;;;;10.47;5.20;;;;;;;9.46;84.79;100568.19;5115756;28;20486;-65
2022/05/22 03:02:37;;;;;;;7.33;5.60;;;;;;;9.39;84.29;100568.72;5115749;28;20474;-64
2022/05/22 03:05:04;;;;;;;7.43;5.63;;;;;;;9.37;84.64;100565.31;5123364;28;20484;-66
2022/05/22 03:07:34;;;;;;;16.20;5.40;;;;;;;9.30;84.35;100561.44;5122411;28;20474;-65
2022/05/22 03:10:01;;;;;;;6.17;5.13;;;;;;;9.19;84.62;100559.63;5117030;28;20483;-65
2022/05/22 03:12:28;;;;;;;5.83;5.33;;;;;;;9.14;84.66;100566.31;5121557;28;20482;-63
2022/05/22 03:14:56;;;;;;;7.27;5.47;;;;;;;9.06;84.76;100558.91;5122962;28;20517;-64
2022/05/22 03:17:24;;;;;;;7.87;5.47;;;;;;;9.05;84.93;100551.91;5122287;28;20501;-64
2022/05/22 03:19:51;;;;;;;6.43;5.80;;;;;;;9.07;84.98;100559.78;5121597;28;20457;-64
2022/05/22 03:22:18;;;;;;;11.13;5.20;;;;;;;9.11;85.06;100559.41;5122131;28;20470;-63
2022/05/22 03:24:46;;;;;;;7.20;5.50;;;;;;;9.14;85.17;100553.81;5123408;28;20458;-63
2022/05/22 03:27:14;;;;;;;9.33;5.27;;;;;;;9.11;84.88;100553.22;5121922;28;20500;-64
2022/05/22 03:29:42;;;;;;;8.60;5.63;;;;;;;9.10;84.72;100565.72;5113428;28;20504;-64
2022/05/22 03:32:10;;;;;;;8.87;6.03;;;;;;;9.16;84.72;100562.53;5101725;28;20562;-64
2022/05/22 03:34:37;;;;;;;7.43;4.67;;;;;;;9.28;84.02;100571.38;5103056;28;20469;-64
2022/05/22 03:37:05;;;;;;;11.03;4.87;;;;;;;9.38;84.07;100568.81;5118550;28;20517;-64
2022/05/22 03:39:32;;;;;;;11.40;5.27;;;;;;;9.97;82.90;100575.53;5114444;28;20446;-63
2022/05/22 03:42:00;;;;;;;9.53;5.50;;;;;;;10.90;81.00;100563.13;5120042;28;20561;-64
2022/05/22 03:44:27;;;;;;;7.57;5.63;;;;;;;11.79;77.51;100562.34;5120444;28;20442;-64
2022/05/22 03:46:54;;;;;;;10.03;6.10;;;;;;;12.63;74.33;100551.78;5122488;28;20832;-64
2022/05/22 03:49:21;;;;;;;7.97;5.80;;;;;;;13.52;71.62;100552.19;5117785;28;20438;-64
2022/05/22 03:51:47;;;;;;;5.30;4.73;;;;;;;13.96;67.11;100549.59;5113023;28;20509;-64
2022/05/22 03:54:14;;;;;;;10.03;4.80;;;;;;;14.40;63.98;100544.19;5122378;28;20544;-63
2022/05/22 03:56:41;;;;;;;5.50;4.00;;;;;;;14.45;62.27;100541.03;5117129;28;21209;-63
2022/05/22 03:59:09;;;;;;;5.40;3.40;;;;;;;14.87;61.10;100538.41;5116530;28;21011;-64
2022/05/22 04:01:37;;;;;;;6.70;3.30;;;;;;;15.66;57.89;100542.69;5116825;28;20524;-64
2022/05/22 04:04:04;;;;;;;4.30;2.80;;;;;;;15.81;56.71;100546.44;5120461;28;20824;-64
2022/05/22 04:06:30;;;;;;;4.97;3.37;;;;;;;15.74;56.88;100546.22;5118992;28;20580;-64
2022/05/22 04:08:57;;;;;;;4.90;2.73;;;;;;;15.73;56.98;100549.94;5113302;28;20431;-64
2022/05/22 04:11:23;;;;;;;4.23;2.97;;;;;;;15.37;58.15;100539.44;5103447;28;20479;-64
2022/05/22 04:13:50;;;;;;;7.10;3.33;;;;;;;15.94;56.78;100538.69;5115024;28;20467;-65
2022/05/22 04:16:18;;;;;;;9.20;3.20;;;;;;;17.01;52.97;100530.41;5120437;28;20508;-65
2022/05/22 04:18:45;;;;;;;3.93;2.80;;;;;;;17.66;51.05;100534.56;5120570;28;20506;-65
2022/05/22 04:21:12;;;;;;;5.07;2.70;;;;;;;17.91;49.87;100537.09;5120148;28;20470;-65
2022/05/22 04:26:28;;;;;;;4.60;2.80;;;;;;;17.82;49.75;100539.00;5116868;28;20535;-65
2022/05/22 04:28:55;;;;;;;6.20;2.40;;;;;;;18.35;48.95;100555.34;5121612;28;21305;-65
2022/05/22 04:31:23;;;;;;;4.80;2.57;;;;;;;18.32;48.87;100550.28;5117146;28;20501;-65
2022/05/22 04:33:49;;;;;;;3.20;2.47;;;;;;;17.87;49.19;100560.97;5118304;28;20467;-65
2022/05/22 04:36:16;;;;;;;2.93;2.60;;;;;;;17.60;50.91;100564.19;5109737;28;20521;-65
2022/05/22 04:38:43;;;;;;;3.90;2.50;;;;;;;18.11;49.55;100559.09;5121027;28;20434;-65
2022/05/22 04:41:10;;;;;;;4.30;2.80;;;;;;;18.60;48.09;100550.50;5110101;28;20482;-65
2022/05/22 04:43:36;;;;;;;3.27;2.50;;;;;;;18.84;47.85;100556.69;5121305;28;20433;-63
2022/05/22 04:46:06;;;;;;;3.93;2.63;;;;;;;18.84;47.45;100558.59;5120181;28;20513;-63
2022/05/22 04:48:34;;;;;;;4.00;2.70;;;;;;;18.36;48.15;100558.88;5121569;28;20473;-64
2022/05/22 04:51:01;;;;;;;3.37;2.63;;;;;;;18.61;48.36;100559.47;5119278;28;20497;-63
2022/05/22 04:53:28;;;;;;;4.30;2.67;;;;;;;18.67;48.16;100556.00;5114161;28;20438;-63
2022/05/22 04:55:54;;;;;;;4.67;2.93;;;;;;;19.47;46.62;100565.19;5115368;28;20493;-63
2022/05/22 04:58:21;;;;;;;6.10;3.00;;;;;;;18.87;47.82;100556.34;5119887;28;20955;-62
2022/05/22 05:00:48;;;;;;;3.70;2.70;;;;;;;18.78;48.30;100560.97;5118831;28;20482;-62
2022/05/22 05:03:15;;;;;;;6.97;2.50;;;;;;;19.42;46.93;100559.50;5121655;28;20460;-64
2022/05/22 05:05:43;;;;;;;4.17;2.60;;;;;;;19.18;47.23;100558.81;5117964;28;20537;-63
2022/05/22 05:08:10;;;;;;;5.63;3.00;;;;;;;18.81;47.84;100570.59;5121777;28;20513;-62
2022/05/22 05:10:36;;;;;;;5.60;2.60;;;;;;;19.21;47.94;100564.88;5120479;28;20523;-63
2022/05/22 05:13:03;;;;;;;4.43;3.30;;;;;;;18.81;49.33;100568.72;5120868;28;20810;-63
2022/05/22 05:15:30;;;;;;;10.10;3.10;;;;;;;18.73;51.24;100565.25;5120271;28;20485;-61
2022/05/22 05:17:57;;;;;;;4.80;3.00;;;;;;;18.80;50.43;100561.63;5125023;28;20505;-62
2022/05/22 05:20:24;;;;;;;7.20;3.50;;;;;;;18.36;50.80;100562.41;5123416;28;20521;-62
2022/05/22 05:22:52;;;;;;;13.33;2.93;;;;;;;19.47;52.21;100554.34;5125392;28;20449;-61
2022/05/22 05:25:19;;;;;;;5.67;3.13;;;;;;;19.43;48.53;100554.94;5121188;28;20446;-61
2022/05/22 05:27:46;;;;;;;5.53;2.60;;;;;;;19.69;47.29;100555.22;5104734;28;20453;-62
2022/05/22 05:30:13;;;;;;;10.93;3.60;;;;;;;21.28;44.26;100548.41;5108867;28;20440;-61
2022/05/22 05:32:41;;;;;;;6.00;2.83;;;;;;;21.63;43.20;100553.81;5125900;28;20436;-62
2022/05/22 05:35:11;;;;;;;5.10;3.20;;;;;;;20.57;45.33;100552.25;5112290;28;20470;-61
2022/05/22 05:37:38;;;;;;;3.73;2.53;;;;;;;19.47;48.51;100554.34;5108702;28;20506;-61
2022/05/22 05:40:08;;;;;;;4.50;2.93;;;;;;;20.13;47.63;100556.91;5125179;28;20454;-61
2022/05/22 05:42:36;;;;;;;6.50;2.83;;;;;;;21.65;43.63;100557.16;5122219;28;20520;-61
2022/05/22 05:45:04;;;;;;;3.40;2.67;;;;;;;22.09;42.29;100553.00;5123333;28;20472;-61
2022/05/22 05:47:30;;;;;;;6.33;2.57;;;;;;;21.35;43.40;100552.03;5120856;27;20493;-61
2022/05/22 05:49:57;;;;;;;7.73;3.07;;;;;;;21.54;43.22;100550.41;5109106;28;20459;-62
2022/05/22 05:52:24;;;;;;;6.67;2.47;;;;;;;23.53;38.86;100544.91;5113072;28;20521;-63
2022/05/22 05:54:50;;;;;;;5.80;2.87;;;;;;;22.88;39.45;100544.94;5113813;28;20435;-62
2022/05/22 05:57:18;;;;;;;5.60;2.43;;;;;;;20.95;43.16;100540.13;5110135;28;20494;-62
2022/05/22 05:59:45;;;;;;;5.03;2.30;;;;;;;21.93;41.80;100532.47;5122321;28;20450;-62
2022/05/22 06:02:13;;;;;;;5.80;2.80;;;;;;;23.27;38.16;100546.72;5124033;28;20544;-63
2022/05/22 06:04:40;;;;;;;7.90;2.80;;;;;;;22.80;38.57;100532.41;5108948;28;20454;-62
2022/05/22 06:07:07;;;;;;;7.53;2.50;;;;;;;21.86;40.31;100537.09;5115705;28;21024;-62
2022/05/22 06:09:35;;;;;;;6.17;2.10;;;;;;;22.65;38.20;100529.09;5124242;28;20514;-64
2022/05/22 06:12:01;;;;;;;7.07;2.50;;;;;;;22.39;38.98;100530.81;5119254;27;20581;-62
2022/05/22 06:14:30;;;;;;;6.30;2.40;;;;;;;22.17;40.14;100531.03;5123109;28;20484;-63
2022/05/22 06:16:57;;;;;;;6.30;2.00;;;;;;;22.92;38.12;100530.69;5103254;28;20483;-63
2022/05/22 06:22:04;;;;;;;4.90;2.00;;;;;;;25.46;33.16;100530.47;5113501;28;21008;-63
2022/05/22 06:24:33;;;;;;;8.10;2.73;;;;;;;23.25;36.14;100524.28;5124390;28;20465;-63
2022/05/22 06:26:59;;;;;;;8.10;2.17;;;;;;;23.14;36.70;100522.25;5122312;28;20494;-62
2022/05/22 06:29:26;;;;;;;5.33;2.20;;;;;;;22.40;38.58;100524.31;5123378;28;20446;-62
2022/05/22 06:31:54;;;;;;;6.10;2.60;;;;;;;23.64;34.94;100519.66;5118155;28;20548;-61
2022/05/22 06:34:22;;;;;;;4.97;2.10;;;;;;;24.70;34.31;100522.53;5123731;28;20426;-63
2022/05/22 06:36:49;;;;;;;7.20;2.30;;;;;;;24.21;33.47;100527.00;5123098;28;20508;-63
2022/05/22 06:42:00;;;;;;;5.60;2.07;;;;;;;23.07;36.02;100526.88;5112958;28;20492;-62
2022/05/22 06:44:27;;;;;;;4.77;1.90;;;;;;;22.92;35.20;100513.50;5103228;28;20546;-62
2022/05/22 06:46:55;;;;;;;8.43;1.63;;;;;;;21.00;36.09;100519.44;5100986;28;20471;-62
2022/05/22 06:49:22;;;;;;;7.30;2.30;;;;;;;21.92;37.51;100513.63;5114653;28;20511;-62
2022/05/22 06:51:48;;;;;;;5.87;1.87;;;;;;;23.29;35.42;100519.22;5091980;28;20507;-62
2022/05/22 06:54:15;;;;;;;8.47;2.23;;;;;;;22.89;35.00;100517.47;5101719;28;20460;-62
2022/05/22 06:56:42;;;;;;;6.20;1.57;;;;;;;21.67;38.03;100514.25;5103542;28;20478;-62
2022/05/22 06:59:08;;;;;;;6.87;2.10;;;;;;;23.47;35.71;100515.75;5116493;28;20544;-62
2022/05/22 07:01:35;;;;;;;7.13;2.20;;;;;;;24.11;32.71;100521.22;5116692;28;20489;-63
2022/05/22 07:04:03;;;;;;;5.93;1.70;;;;;;;24.17;33.17;100518.44;5117266;28;20445;-63
2022/05/22 07:06:29;;;;;;;10.37;2.10;;;;;;;23.52;34.48;100526.03;5123013;28;20494;-63
2022/05/22 07:08:56;;;;;;;6.90;2.00;;;;;;;24.50;32.63;100532.84;5110676;28;20447;-62
2022/05/22 07:11:40;;;;;;;5.27;1.90;;;;;;;23.92;33.73;100536.69;5097121;28;20917;-62
2022/05/22 07:14:08;;;;;;;4.80;2.00;;;;;;;26.24;29.81;100529.47;5110981;28;20749;-63
2022/05/22 07:16:35;;;;;;;3.77;1.50;;;;;;;26.43;31.17;100535.66;5119470;28;20498;-62
2022/05/22 07:19:03;;;;;;;5.97;1.80;;;;;;;24.95;31.88;100530.69;5123412;28;20414;-62
2022/05/22 07:21:30;;;;;;;5.70;1.83;;;;;;;27.01;29.96;100530.34;5106253;28;20501;-62
2022/05/22 07:23:56;;;;;;;6.70;2.27;;;;;;;27.39;28.77;100527.06;5104245;28;20491;-62
2022/05/22 07:26:24;;;;;;;7.63;1.83;;;;;;;26.85;29.65;100531.94;5104813;28;20502;-62
2022/05/22 07:28:51;;;;;;;5.60;1.97;;;;;;;27.31;28.96;100519.22;5104252;28;20761;-62
2022/05/22 07:31:19;;;;;;;7.40;2.27;;;;;;;26.33;30.19;100527.19;5118294;28;20797;-63
2022/05/22 07:33:46;;;;;;;5.87;1.90;;;;;;;24.98;32.76;100518.44;5103120;28;20547;-62
2022/05/22 07:36:14;;;;;;;6.33;1.90;;;;;;;25.66;31.18;100521.97;5102477;28;20478;-62
2022/05/22 07:38:41;;;;;;;7.00;2.00;;;;;;;23.02;34.18;100510.28;5103215;28;20499;-63
2022/05/22 07:41:07;;;;;;;5.20;1.93;;;;;;;24.19;32.60;100518.19;5102268;28;20500;-63
2022/05/22 07:43:34;;;;;;;9.33;2.47;;;;;;;24.11;33.63;100515.75;5102389;28;20450;-63
2022/05/22 07:46:01;;;;;;;7.70;2.33;;;;;;;24.01;33.49;100528.03;5101425;28;20562;-62
2022/05/22 07:48:27;;;;;;;5.53;1.80;;;;;;;25.02;32.74;100518.84;5102539;28;20454;-62
2022/05/22 07:50:55;;;;;;;10.40;2.60;;;;;;;23.33;35.19;100525.91;5101362;28;20498;-61
2022/05/22 07:53:23;;;;;;;5.17;1.83;;;;;;;22.40;36.47;100520.78;5102342;28;20442;-62
2022/05/22 07:55:49;;;;;;;4.70;1.80;;;;;;;24.87;33.11;100509.09;5102199;28;20537;-63
2022/05/22 07:58:16;;;;;;;4.70;2.17;;;;;;;24.99;33.58;100511.91;5102140;28;21015;-62
2022/05/22 08:00:43;;;;;;;8.30;2.23;;;;;;;24.33;33.56;100514.28;5101677;28;20546;-62
2022/05/22 08:03:10;;;;;;;3.60;1.43;;;;;;;26.11;30.31;100518.75;5102364;28;20466;-62
2022/05/22 08:05:37;;;;;;;6.20;1.53;;;;;;;26.92;28.51;100524.41;5101846;28;20485;-62
2022/05/22 08:08:04;;;;;;;5.30;1.70;;;;;;;26.06;28.77;100516.72;5102164;28;20538;-62
2022/05/22 08:10:32;;;;;;;3.80;1.40;;;;;;;23.64;32.45;100525.13;5101395;28;20478;-62
2022/05/22 08:12:59;;;;;;;5.10;1.70;;;;;;;23.75;33.34;100528.16;5100948;28;20452;-62
2022/05/22 08:15:30;;;;;;;5.57;1.63;;;;;;;24.60;30.58;100523.09;5101123;28;20458;-62
2022/05/22 08:17:56;;;;;;;2.93;1.60;;;;;;;25.39;31.00;100525.09;5102050;28;20487;-63
2022/05/22 08:20:23;;;;;;;3.67;1.40;;;;;;;24.90;32.29;100518.75;5101630;28;20514;-63
2022/05/22 08:22:54;;;;;;;4.77;1.60;;;;;;;24.08;32.99;100518.91;5102064;28;20530;-63
2022/05/22 08:25:21;;;;;;;8.80;2.53;;;;;;;24.62;31.02;100514.66;5101178;28;20455;-63
2022/05/22 08:27:49;;;;;;;4.50;1.53;;;;;;;24.48;32.64;100511.19;5101780;28;20451;-61
2022/05/22 08:30:18;;;;;;;5.63;1.93;;;;;;;23.97;32.07;100520.47;5101653;28;20542;-62
2022/05/22 08:32:46;;;;;;;5.30;1.60;;;;;;;23.69;33.01;100503.44;5102158;28;20443;-64
2022/05/22 08:35:14;;;;;;;4.67;1.67;;;;;;;22.06;36.40;100498.13;5101468;28;20526;-63
2022/05/22 08:37:41;;;;;;;3.80;1.60;;;;;;;23.85;32.14;100501.25;5101792;28;20506;-63
2022/05/22 08:40:09;;;;;;;5.70;1.47;;;;;;;25.77;30.73;100503.91;5100880;28;20530;-63
2022/05/22 08:42:40;;;;;;;4.23;1.43;;;;;;;26.97;28.76;100502.56;5101146;28;20500;-63
2022/05/22 08:45:15;;;;;;;5.60;1.50;;;;;;;27.37;28.90;100492.66;5092514;28;20431;-63
2022/05/22 08:47:52;;;;;;;4.60;1.50;;;;;;;27.42;27.36;100496.34;5101482;28;20472;-63
2022/05/22 08:50:18;;;;;;;4.30;1.70;;;;;;;24.86;29.99;100493.78;5100615;28;20538;-63
2022/05/22 08:52:48;;;;;;;3.47;1.37;;;;;;;26.27;29.30;100498.03;5101636;28;20466;-63
2022/05/22 08:55:18;;;;;;;5.50;1.80;;;;;;;22.89;33.43;100503.84;5101148;28;20479;-63
2022/05/22 09:00:37;;;;;;;9.47;1.93;;;;;;;19.11;42.37;100502.84;5101212;28;20544;-63
2022/05/22 09:03:07;;;;;;;5.07;1.70;;;;;;;22.71;36.59;100499.09;5101852;28;20423;-63
2022/05/22 09:05:35;;;;;;;5.17;1.60;;;;;;;23.42;33.52;100491.88;5100972;28;20474;-63
2022/05/22 09:08:05;;;;;;;5.23;1.70;;;;;;;23.83;33.54;100495.19;5100809;28;20481;-62
2022/05/22 09:10:44;;;;;;;3.37;1.50;;;;;;;23.59;33.74;100480.41;5101068;28;20490;-63
2022/05/22 09:13:18;;;;;;;3.97;1.57;;;;;;;24.60;32.71;100482.06;5101225;28;20450;-63
2022/05/22 09:15:49;;;;;;;4.13;1.47;;;;;;;26.09;30.59;100475.16;5100496;28;20482;-63
2022/05/22 09:18:24;;;;;;;7.03;1.67;;;;;;;26.21;29.56;100483.34;5101098;28;20493;-63
2022/05/22 09:20:55;;;;;;;8.33;1.70;;;;;;;25.92;31.00;100465.94;5101013;28;20501;-63
2022/05/22 09:23:39;;;;;;;4.70;1.40;;;;;;;24.67;31.56;100462.00;5101755;28;20453;-62
2022/05/22 09:26:09;;;;;;;5.23;1.80;;;;;;;24.88;31.17;100466.19;5100573;28;20545;-63
2022/05/22 09:28:44;;;;;;;4.10;1.67;;;;;;;25.88;31.96;100468.31;5100785;28;20474;-63
2022/05/22 09:31:19;;;;;;;3.87;1.37;;;;;;;26.16;29.93;100463.22;5100951;28;20582;-63
2022/05/22 09:33:49;;;;;;;5.80;1.77;;;;;;;26.96;28.86;100467.16;5101928;28;20466;-63
2022/05/22 09:36:24;;;;;;;4.10;1.37;;;;;;;27.57;27.58;100460.09;5100668;28;20502;-63
2022/05/22 09:39:03;;;;;;;4.30;1.33;;;;;;;27.01;27.97;100461.75;5100031;28;20499;-63
2022/05/22 09:41:50;;;;;;;2.73;1.40;;;;;;;25.94;28.47;100458.34;5105961;28;20514;-63
2022/05/22 09:44:46;;;;;;;4.80;1.50;;;;;;;25.11;30.14;100460.00;5121535;28;20517;-63
2022/05/22 09:47:51;;;;;;;6.03;2.13;;;;;;;25.58;30.79;100453.84;5117799;28;21093;-63
2022/05/22 09:50:23;;;;;;;4.80;1.63;;;;;;;25.61;30.58;100459.69;5048922;28;20535;-63
2022/05/22 09:52:58;;;;;;;7.03;2.00;;;;;;;23.94;33.78;100461.69;5095744;28;20465;-63
2022/05/22 09:55:37;;;;;;;3.50;1.43;;;;;;;26.77;29.07;100453.63;5100455;28;20442;-63
2022/05/22 09:58:13;;;;;;;3.90;1.20;;;;;;;27.49;29.24;100449.50;5100018;28;20523;-63
2022/05/22 10:00:45;;;;;;;6.57;2.17;;;;;;;27.29;28.22;100450.00;5100416;28;20863;-63
2022/05/22 10:03:16;;;;;;;4.10;1.73;;;;;;;27.21;27.81;100451.19;5101938;28;20441;-63
2022/05/22 10:05:51;;;;;;;6.23;1.63;;;;;;;26.48;29.17;100459.00;5104076;28;20558;-64
2022/05/22 10:08:26;;;;;;;4.37;1.60;;;;;;;24.75;31.32;100445.31;5104299;28;20474;-63
2022/05/22 10:10:56;;;;;;;5.07;1.93;;;;;;;22.31;36.78;100444.72;5104080;28;20501;-62
2022/05/22 10:13:30;;;;;;;5.33;1.90;;;;;;;21.15;36.92;100442.34;5104311;28;20474;-63
2022/05/22 10:16:09;;;;;;;4.97;1.43;;;;;;;23.34;35.32;100442.19;5103643;28;20546;-63
2022/05/22 10:18:50;;;;;;;4.40;1.47;;;;;;;23.69;31.78;100437.91;5103990;28;20498;-63
2022/05/22 10:21:22;;;;;;;2.77;1.37;;;;;;;21.82;35.20;100443.28;5103294;28;20497;-62
2022/05/22 10:24:13;;;;;;;4.07;1.30;;;;;;;23.50;34.76;100437.03;5104371;28;20526;-63
2022/05/22 10:26:51;;;;;;;4.73;1.80;;;;;;;24.81;31.81;100425.25;5102812;28;20562;-63
2022/05/22 10:29:22;;;;;;;4.80;1.37;;;;;;;23.91;32.97;100434.00;5104292;28;20459;-62
2022/05/22 10:31:55;;;;;;;7.20;1.50;;;;;;;23.43;33.70;100424.50;5103944;28;20546;-62
2022/05/22 10:34:32;;;;;;;4.70;1.60;;;;;;;22.96;34.08;100424.75;5104322;28;20431;-62
2022/05/22 10:37:01;;;;;;;3.80;1.40;;;;;;;21.49;36.02;100418.78;5103059;28;20510;-63
2022/05/22 10:39:28;;;;;;;4.10;1.50;;;;;;;23.66;34.56;100429.34;5104263;28;20566;-64
2022/05/22 10:44:44;;;;;;;3.87;1.67;;;;;;;26.00;31.81;100418.19;5103561;28;20433;-63
2022/05/22 10:47:12;;;;;;;8.00;1.60;;;;;;;23.12;33.11;100418.84;5103193;28;20555;-63
2022/05/22 10:49:42;;;;;;;4.50;1.50;;;;;;;23.43;35.42;100417.13;5104208;28;20435;-63
2022/05/22 10:52:11;;;;;;;4.20;1.90;;;;;;;23.23;36.35;100424.66;5103309;28;20916;-63
2022/05/22 10:54:45;;;;;;;5.93;1.53;;;;;;;24.11;35.03;100412.78;5104186;28;20637;-63
2022/05/22 10:57:15;;;;;;;8.13;2.10;;;;;;;25.48;31.57;100411.44;5102445;28;21101;-64
2022/05/22 10:59:42;;;;;;;3.80;1.60;;;;;;;25.80;31.56;100410.31;5103472;28;20896;-64
2022/05/22 11:02:17;;;;;;;4.90;1.60;;;;;;;25.82;30.17;100403.50;5102886;28;20499;-64
2022/05/22 11:04:46;;;;;;;4.90;1.30;;;;;;;24.50;33.49;100410.66;5103453;28;20525;-63
2022/05/22 11:07:14;;;;;;;5.90;1.83;;;;;;;25.46;30.39;100399.91;5103040;28;20501;-63
2022/05/22 11:09:47;;;;;;;4.90;2.03;;;;;;;26.77;28.47;100396.03;5103562;28;20469;-63
2022/05/22 11:12:16;;;;;;;6.50;1.60;;;;;;;24.53;30.67;100395.69;5102488;28;20546;-62
2022/05/22 11:14:43;;;;;;;5.57;1.40;;;;;;;23.24;34.07;100399.84;5101935;28;20936;-62
2022/05/22 11:17:11;;;;;;;5.57;1.80;;;;;;;24.69;33.51;100397.84;5102772;28;20502;-63
2022/05/22 11:19:40;;;;;;;4.00;1.63;;;;;;;25.17;31.53;100394.25;5103355;28;20466;-63
2022/05/22 11:22:19;;;;;;;4.43;1.73;;;;;;;25.36;31.03;100384.09;5102286;28;20501;-63
2022/05/22 11:24:51;;;;;;;4.10;1.60;;;;;;;21.49;37.13;100388.84;5103170;28;20490;-63
2022/05/22 11:27:26;;;;;;;6.27;1.67;;;;;;;23.62;35.90;100379.00;5101931;28;20502;-62
2022/05/22 11:30:07;;;;;;;4.20;1.40;;;;;;;23.69;33.64;100369.66;5103005;28;20457;-63
2022/05/22 11:32:55;;;;;;;7.03;1.83;;;;;;;24.34;33.83;100376.59;5102305;28;20501;-62
2022/05/22 11:35:31;;;;;;;5.00;1.50;;;;;;;24.88;33.56;100370.47;5102655;28;20471;-63
2022/05/22 11:38:11;;;;;;;4.57;1.23;;;;;;;23.81;31.96;100369.81;5102910;28;20514;-63
2022/05/22 11:40:47;;;;;;;3.10;1.80;;;;;;;23.23;33.82;100368.19;5101923;28;20557;-63
2022/05/22 11:43:26;;;;;;;10.30;2.30;;;;;;;25.16;28.80;100367.09;5101018;28;20483;-63
2022/05/22 11:45:57;;;;;;;5.90;1.60;;;;;;;25.13;28.88;100360.19;5101795;28;20497;-63
2022/05/22 11:48:33;;;;;;;2.93;1.33;;;;;;;24.81;31.37;100360.47;5102741;28;20473;-63